STV4 EDDF-EDDP
Flight info
| Callsign | STV4 |
|---|---|
| Flight time | N/A |
| Altitude | 23000 |
| Route | SULUS7S/18 SULUS Z12 LASGA T953 VOCIM T954 GOXLI GOXLI1V |
| Aircraft | B77W/H-SDE1E2E3FGHIJ2J3J4J5M1RWXY/LB1D1 |
Departure
| Time | 2026-04-17 09:04 |
|---|---|
| Airport | Frankfurt Main Airport (EDDF) |
Arrival
| Time | N/A |
|---|---|
| Airport | Leipzig/Halle Airport (EDDP) |
| Time | Latitude | Longitude | Altitude | Speed | Heading |
|---|---|---|---|---|---|
| 2026-04-17 08:18 | 50.04722 | 8.56277 | 370 ft | 0 kts | 340° |
| 2026-04-17 08:50 | 50.04718 | 8.56278 | 370 ft | 2 kts | 339° |
| 2026-04-17 08:51 | 50.04705 | 8.56288 | 370 ft | 2 kts | 327° |
| 2026-04-17 08:51 | 50.04693 | 8.56302 | 370 ft | 2 kts | 316° |
| 2026-04-17 08:51 | 50.04683 | 8.56320 | 370 ft | 2 kts | 307° |
| 2026-04-17 08:51 | 50.04675 | 8.56339 | 370 ft | 2 kts | 296° |
| 2026-04-17 08:52 | 50.04669 | 8.56361 | 371 ft | 2 kts | 287° |
| 2026-04-17 08:52 | 50.04666 | 8.56383 | 371 ft | 2 kts | 277° |
| 2026-04-17 08:52 | 50.04665 | 8.56406 | 372 ft | 2 kts | 267° |
| 2026-04-17 08:52 | 50.04667 | 8.56429 | 372 ft | 2 kts | 257° |
| 2026-04-17 08:53 | 50.04671 | 8.56452 | 373 ft | 2 kts | 248° |
| 2026-04-17 08:53 | 50.04677 | 8.56473 | 373 ft | 1 kts | 248° |
| 2026-04-17 08:53 | 50.04678 | 8.56478 | 373 ft | 0 kts | 248° |
| 2026-04-17 08:56 | 50.04675 | 8.56467 | 373 ft | 4 kts | 249° |
| 2026-04-17 08:56 | 50.04650 | 8.56366 | 371 ft | 14 kts | 249° |
| 2026-04-17 08:56 | 50.04618 | 8.56230 | 371 ft | 11 kts | 250° |
| 2026-04-17 08:56 | 50.04583 | 8.56087 | 371 ft | 14 kts | 250° |
| 2026-04-17 08:57 | 50.04548 | 8.55981 | 371 ft | 13 kts | 220° |
| 2026-04-17 08:57 | 50.04463 | 8.55934 | 370 ft | 14 kts | 187° |
| 2026-04-17 08:57 | 50.04376 | 8.55931 | 368 ft | 11 kts | 169° |
| 2026-04-17 08:57 | 50.04309 | 8.55959 | 366 ft | 6 kts | 164° |
| 2026-04-17 08:58 | 50.04269 | 8.55971 | 365 ft | 5 kts | 193° |
| 2026-04-17 08:58 | 50.04232 | 8.55902 | 363 ft | 12 kts | 245° |
| 2026-04-17 08:58 | 50.04191 | 8.55744 | 362 ft | 18 kts | 249° |
| 2026-04-17 08:58 | 50.04143 | 8.55546 | 363 ft | 18 kts | 250° |
| 2026-04-17 08:59 | 50.04099 | 8.55362 | 361 ft | 18 kts | 250° |
| 2026-04-17 08:59 | 50.04053 | 8.55175 | 360 ft | 18 kts | 250° |
| 2026-04-17 08:59 | 50.04008 | 8.54981 | 354 ft | 20 kts | 251° |
| 2026-04-17 08:59 | 50.03960 | 8.54777 | 352 ft | 20 kts | 249° |
| 2026-04-17 09:00 | 50.03909 | 8.54570 | 349 ft | 20 kts | 249° |
| 2026-04-17 09:00 | 50.03883 | 8.54472 | 349 ft | 0 kts | 246° |
| 2026-04-17 09:00 | 50.03870 | 8.54423 | 349 ft | 12 kts | 247° |
| 2026-04-17 09:00 | 50.03811 | 8.54266 | 349 ft | 19 kts | 244° |
| 2026-04-17 09:01 | 50.03755 | 8.54051 | 352 ft | 23 kts | 250° |
| 2026-04-17 09:01 | 50.03695 | 8.53804 | 355 ft | 23 kts | 250° |
| 2026-04-17 09:01 | 50.03640 | 8.53571 | 354 ft | 22 kts | 250° |
| 2026-04-17 09:01 | 50.03585 | 8.53344 | 351 ft | 22 kts | 249° |
| 2026-04-17 09:02 | 50.03529 | 8.53110 | 348 ft | 22 kts | 250° |
| 2026-04-17 09:02 | 50.03473 | 8.52880 | 347 ft | 22 kts | 248° |
| 2026-04-17 09:02 | 50.03424 | 8.52695 | 346 ft | 14 kts | 249° |
| 2026-04-17 09:02 | 50.03385 | 8.52606 | 345 ft | 9 kts | 206° |
| 2026-04-17 09:03 | 50.03341 | 8.52595 | 344 ft | 0 kts | 178° |
| 2026-04-17 09:03 | 50.03332 | 8.52595 | 344 ft | 13 kts | 178° |
| 2026-04-17 09:04 | 50.02920 | 8.52604 | 336 ft | 107 kts | 180° |
| 2026-04-17 09:04 | 50.01896 | 8.52602 | 518 ft | 174 kts | 180° |
| 2026-04-17 09:04 | 50.00644 | 8.52599 | 1431 ft | 187 kts | 180° |
| 2026-04-17 09:04 | 49.99446 | 8.52592 | 2595 ft | 177 kts | 180° |
| 2026-04-17 09:05 | 49.98196 | 8.52637 | 3347 ft | 186 kts | 178° |
| 2026-04-17 09:05 | 49.96955 | 8.53069 | 4234 ft | 186 kts | 152° |
| 2026-04-17 09:05 | 49.95945 | 8.54328 | 4922 ft | 199 kts | 129° |
| 2026-04-17 09:05 | 49.95240 | 8.56277 | 5595 ft | 215 kts | 116° |
| 2026-04-17 09:06 | 49.94568 | 8.58396 | 6328 ft | 229 kts | 117° |
| 2026-04-17 09:06 | 49.94120 | 8.60820 | 7127 ft | 243 kts | 99° |
| 2026-04-17 09:06 | 49.93954 | 8.63529 | 7838 ft | 262 kts | 95° |
| 2026-04-17 09:06 | 49.93829 | 8.66402 | 8564 ft | 279 kts | 97° |
| 2026-04-17 09:07 | 49.93211 | 8.69275 | 9463 ft | 288 kts | 122° |
| 2026-04-17 09:07 | 49.91869 | 8.71565 | 10420 ft | 293 kts | 141° |
| 2026-04-17 09:07 | 49.90200 | 8.73512 | 11165 ft | 309 kts | 144° |
| 2026-04-17 09:07 | 49.88578 | 8.75823 | 11843 ft | 328 kts | 130° |
| 2026-04-17 09:08 | 49.87289 | 8.78788 | 12505 ft | 345 kts | 120° |
| 2026-04-17 09:08 | 49.86060 | 8.82095 | 13216 ft | 363 kts | 119° |
| 2026-04-17 09:08 | 49.84807 | 8.85543 | 14078 ft | 375 kts | 119° |
| 2026-04-17 09:08 | 49.83521 | 8.89088 | 15077 ft | 382 kts | 119° |
| 2026-04-17 09:09 | 49.82216 | 8.92680 | 16147 ft | 387 kts | 119° |
| 2026-04-17 09:09 | 49.80904 | 8.96289 | 17118 ft | 394 kts | 118° |
| 2026-04-17 09:09 | 49.79551 | 9.00006 | 18051 ft | 401 kts | 119° |
| 2026-04-17 09:09 | 49.78161 | 9.03817 | 19034 ft | 407 kts | 118° |
| 2026-04-17 09:10 | 49.75795 | 9.11770 | 20898 ft | 417 kts | 104° |
| 2026-04-17 09:10 | 49.75071 | 9.16136 | 21786 ft | 423 kts | 102° |
| 2026-04-17 09:10 | 49.74366 | 9.20583 | 22657 ft | 429 kts | 102° |
| 2026-04-17 09:11 | 49.73656 | 9.25009 | 23143 ft | 430 kts | 102° |
| 2026-04-17 09:11 | 49.72933 | 9.29486 | 23203 ft | 428 kts | 102° |
| 2026-04-17 09:11 | 49.72214 | 9.33924 | 23213 ft | 426 kts | 102° |
| 2026-04-17 09:11 | 49.71486 | 9.38397 | 23211 ft | 429 kts | 102° |
| 2026-04-17 09:12 | 49.70755 | 9.42879 | 23210 ft | 427 kts | 102° |
| 2026-04-17 09:12 | 49.70030 | 9.47305 | 23214 ft | 427 kts | 102° |
| 2026-04-17 09:12 | 49.69297 | 9.51768 | 23213 ft | 430 kts | 102° |
| 2026-04-17 09:12 | 49.68573 | 9.56167 | 23210 ft | 426 kts | 102° |
| 2026-04-17 09:13 | 49.67843 | 9.60600 | 23208 ft | 426 kts | 101° |
| 2026-04-17 09:13 | 49.67408 | 9.65106 | 23211 ft | 423 kts | 91° |
| 2026-04-17 09:13 | 49.67499 | 9.69579 | 23211 ft | 422 kts | 80° |
| 2026-04-17 09:13 | 49.68088 | 9.74005 | 23217 ft | 417 kts | 72° |
| 2026-04-17 09:14 | 49.68850 | 9.78337 | 23221 ft | 417 kts | 72° |
| 2026-04-17 09:14 | 49.69607 | 9.82586 | 23212 ft | 415 kts | 71° |
| 2026-04-17 09:14 | 49.70372 | 9.86898 | 23219 ft | 416 kts | 72° |